Time;durP1;ratioP1;P1;durP2;ratioP2;P2;SDS_P1;SDS_P2;PMS_P1;PMS_P2;Temp;Humidity;BMP_temperature;BMP_pressure;BME280_temperature;BME280_humidity;BME280_pressure;Samples;Min_cycle;Max_cycle;Signal;HPM_P1;HPM_P2
2023/09/22 00:00:00;;;;;;;34.15;11.02;;;;;;;;;;5025567;28;20040;-73
2023/09/22 00:02:27;;;;;;;23.42;11.98;;;;;;;;;;5026305;28;20738;-72
2023/09/22 00:04:53;;;;;;;24.70;11.93;;;;;;;;;;5025117;28;20040;-73
2023/09/22 00:07:19;;;;;;;28.70;12.70;;;;;;;;;;5025280;28;20053;-73
2023/09/22 00:09:45;;;;;;;28.75;12.60;;;;;;;;;;5026012;28;20041;-73
2023/09/22 00:12:11;;;;;;;30.45;13.18;;;;;;;;;;5026853;28;20086;-72
2023/09/22 00:14:37;;;;;;;29.52;12.57;;;;;;;;;;5025394;28;20055;-73
2023/09/22 00:17:04;;;;;;;26.70;13.48;;;;;;;;;;5025190;28;20059;-73
2023/09/22 00:19:31;;;;;;;21.08;12.13;;;;;;;;;;5007116;28;20044;-72
2023/09/22 00:21:57;;;;;;;30.90;13.88;;;;;;;;;;5029628;28;20053;-72
2023/09/22 00:24:23;;;;;;;32.67;13.68;;;;;;;;;;5026689;28;20559;-71
2023/09/22 00:26:49;;;;;;;34.38;13.82;;;;;;;;;;5028370;28;20524;-71
2023/09/22 00:29:15;;;;;;;22.10;12.48;;;;;;;;;;5032133;28;20050;-72
2023/09/22 00:31:41;;;;;;;27.63;13.70;;;;;;;;;;5030366;28;20049;-71
2023/09/22 00:34:08;;;;;;;29.33;14.00;;;;;;;;;;5031079;28;20159;-71
2023/09/22 00:36:34;;;;;;;28.02;13.57;;;;;;;;;;5027113;28;20478;-72
2023/09/22 00:39:00;;;;;;;33.42;14.40;;;;;;;;;;5025321;28;20644;-71
2023/09/22 00:41:26;;;;;;;27.83;13.35;;;;;;;;;;5011156;28;20053;-72
2023/09/22 00:43:52;;;;;;;22.58;13.15;;;;;;;;;;5029439;28;20132;-72
2023/09/22 00:46:23;;;;;;;23.88;12.38;;;;;;;;;;5028866;28;20040;-72
2023/09/22 00:48:50;;;;;;;22.60;12.95;;;;;;;;;;5025551;28;20075;-72
2023/09/22 00:51:19;;;;;;;33.25;15.45;;;;;;;;;;5027673;28;20067;-72
2023/09/22 00:53:46;;;;;;;24.88;12.85;;;;;;;;;;5025977;28;20485;-72
2023/09/22 00:56:12;;;;;;;25.85;13.85;;;;;;;;;;5020665;28;20052;-72
2023/09/22 00:58:39;;;;;;;22.38;13.77;;;;;;;;;;5026517;28;20059;-72
2023/09/22 01:01:05;;;;;;;21.33;12.65;;;;;;;;;;5025807;28;20053;-72
2023/09/22 01:03:31;;;;;;;19.98;12.10;;;;;;;;;;5024124;28;20088;-72
2023/09/22 01:05:57;;;;;;;18.13;11.52;;;;;;;;;;5025103;28;20045;-71
2023/09/22 01:08:23;;;;;;;16.90;10.60;;;;;;;;;;5027649;28;20072;-72
2023/09/22 01:10:50;;;;;;;18.55;11.40;;;;;;;;;;5022204;28;20061;-72
2023/09/22 01:13:16;;;;;;;18.38;11.48;;;;;;;;;;5027008;28;21377;-72
2023/09/22 01:15:42;;;;;;;17.00;10.40;;;;;;;;;;5023059;28;20698;-72
2023/09/22 01:18:10;;;;;;;16.52;10.07;;;;;;;;;;5025338;28;20045;-72
2023/09/22 01:20:41;;;;;;;14.02;9.88;;;;;;;;;;5016357;28;22140;-72
2023/09/22 01:23:08;;;;;;;14.93;9.82;;;;;;;;;;5028729;28;20049;-72
2023/09/22 01:25:34;;;;;;;16.55;10.60;;;;;;;;;;5028025;28;21008;-72
2023/09/22 01:28:00;;;;;;;15.90;10.43;;;;;;;;;;5022970;28;20059;-72
2023/09/22 01:30:26;;;;;;;17.58;10.70;;;;;;;;;;5023078;28;21043;-72
2023/09/22 01:32:52;;;;;;;13.80;10.15;;;;;;;;;;5025450;28;20107;-72
2023/09/22 01:35:18;;;;;;;13.50;9.93;;;;;;;;;;5005637;28;20122;-72
2023/09/22 01:37:51;;;;;;;12.32;9.35;;;;;;;;;;5022866;28;20072;-72
2023/09/22 01:40:17;;;;;;;11.55;8.20;;;;;;;;;;5026466;28;21397;-72
2023/09/22 01:42:43;;;;;;;12.88;8.68;;;;;;;;;;5029001;28;20045;-72
2023/09/22 01:45:10;;;;;;;10.95;8.23;;;;;;;;;;5028304;28;20591;-72
2023/09/22 01:47:38;;;;;;;14.70;9.23;;;;;;;;;;5013339;28;20690;-73
2023/09/22 01:50:06;;;;;;;11.77;8.35;;;;;;;;;;5026958;28;20044;-73
2023/09/22 01:52:32;;;;;;;14.48;9.27;;;;;;;;;;5027756;28;20041;-72
2023/09/22 01:54:58;;;;;;;13.45;9.07;;;;;;;;;;5031651;28;20044;-72
2023/09/22 01:57:24;;;;;;;12.75;8.98;;;;;;;;;;5030817;28;20033;-72
2023/09/22 01:59:50;;;;;;;14.18;9.50;;;;;;;;;;5029001;28;20051;-72
2023/09/22 02:02:16;;;;;;;15.77;9.48;;;;;;;;;;5026193;28;22175;-73
2023/09/22 02:04:42;;;;;;;14.02;9.43;;;;;;;;;;5018221;28;20041;-72
2023/09/22 02:07:08;;;;;;;15.10;9.45;;;;;;;;;;5029691;28;20147;-72
2023/09/22 02:09:34;;;;;;;16.30;9.70;;;;;;;;;;5031183;28;20053;-72
2023/09/22 02:12:00;;;;;;;15.55;9.68;;;;;;;;;;5029990;28;20799;-72
2023/09/22 02:14:26;;;;;;;16.23;10.00;;;;;;;;;;5027341;28;20079;-73
2023/09/22 02:16:53;;;;;;;23.30;10.70;;;;;;;;;;5025891;28;20053;-73
2023/09/22 02:19:19;;;;;;;25.05;11.98;;;;;;;;;;5017005;28;20061;-73
2023/09/22 02:21:46;;;;;;;19.77;11.35;;;;;;;;;;5030460;28;21109;-72
2023/09/22 02:24:12;;;;;;;25.98;12.77;;;;;;;;;;5032460;28;20377;-72
2023/09/22 02:26:38;;;;;;;21.20;12.05;;;;;;;;;;5013359;28;20127;-72
2023/09/22 02:29:04;;;;;;;25.77;12.73;;;;;;;;;;5037639;28;20040;-72
2023/09/22 02:31:30;;;;;;;31.02;15.02;;;;;;;;;;5027602;28;20049;-72
2023/09/22 02:33:56;;;;;;;36.83;17.90;;;;;;;;;;5029453;28;20044;-73
2023/09/22 02:36:22;;;;;;;40.58;18.15;;;;;;;;;;5033523;28;20363;-73
2023/09/22 02:38:48;;;;;;;40.80;19.65;;;;;;;;;;5011586;28;20660;-73
2023/09/22 02:41:15;;;;;;;46.78;19.92;;;;;;;;;;5028345;28;20850;-73
2023/09/22 02:43:41;;;;;;;47.22;20.95;;;;;;;;;;5029391;28;20041;-73
2023/09/22 02:46:07;;;;;;;42.78;19.90;;;;;;;;;;5027866;28;20434;-73
2023/09/22 02:48:33;;;;;;;48.42;21.67;;;;;;;;;;5027796;28;21351;-72
2023/09/22 02:50:59;;;;;;;45.88;21.98;;;;;;;;;;5025941;28;21060;-73
2023/09/22 02:53:25;;;;;;;46.08;20.52;;;;;;;;;;5025793;28;20076;-73
2023/09/22 02:55:52;;;;;;;46.38;20.88;;;;;;;;;;5029745;28;20560;-72
2023/09/22 02:58:18;;;;;;;48.90;23.45;;;;;;;;;;5029430;28;20059;-73
2023/09/22 03:00:44;;;;;;;56.40;25.50;;;;;;;;;;5026666;28;20045;-72
2023/09/22 03:03:16;;;;;;;53.40;26.08;;;;;;;;;;5027658;28;20443;-72
2023/09/22 03:05:42;;;;;;;55.92;26.85;;;;;;;;;;5029682;28;20071;-73
2023/09/22 03:08:08;;;;;;;54.08;27.27;;;;;;;;;;5026902;28;20055;-72
2023/09/22 03:10:34;;;;;;;55.25;26.85;;;;;;;;;;5030207;28;20049;-71
2023/09/22 03:13:00;;;;;;;56.75;26.98;;;;;;;;;;5027713;28;20053;-71
2023/09/22 03:15:26;;;;;;;49.92;26.60;;;;;;;;;;5027654;28;20052;-72
2023/09/22 03:17:52;;;;;;;59.28;28.00;;;;;;;;;;5029216;28;20151;-72
2023/09/22 03:20:19;;;;;;;57.30;28.02;;;;;;;;;;5031708;28;20043;-71
2023/09/22 03:22:46;;;;;;;52.58;26.98;;;;;;;;;;5030079;28;22049;-72
2023/09/22 03:25:12;;;;;;;52.85;27.98;;;;;;;;;;5028177;28;20055;-72
2023/09/22 03:27:38;;;;;;;50.38;27.55;;;;;;;;;;5030010;28;20095;-72
2023/09/22 03:30:06;;;;;;;47.03;26.02;;;;;;;;;;5031507;28;20037;-72
2023/09/22 03:32:32;;;;;;;48.13;27.17;;;;;;;;;;5024539;28;20557;-72
2023/09/22 03:34:58;;;;;;;52.10;25.80;;;;;;;;;;5027253;28;20049;-72
2023/09/22 03:37:29;;;;;;;49.72;27.30;;;;;;;;;;5027389;28;20130;-72
2023/09/22 03:39:58;;;;;;;50.55;27.88;;;;;;;;;;5028524;28;20075;-71
2023/09/22 03:42:25;;;;;;;46.80;24.88;;;;;;;;;;5028070;28;20045;-71
2023/09/22 03:44:51;;;;;;;50.53;26.98;;;;;;;;;;5027673;28;20049;-72
2023/09/22 03:47:17;;;;;;;47.28;26.98;;;;;;;;;;5027060;28;20053;-71
2023/09/22 03:49:43;;;;;;;47.03;26.95;;;;;;;;;;5022844;28;20048;-72
2023/09/22 03:52:09;;;;;;;52.85;28.55;;;;;;;;;;5025651;28;20504;-72
2023/09/22 03:54:36;;;;;;;48.55;27.55;;;;;;;;;;5020659;28;20587;-71
2023/09/22 03:57:02;;;;;;;50.20;27.27;;;;;;;;;;5025247;28;20061;-72
2023/09/22 03:59:28;;;;;;;52.90;27.30;;;;;;;;;;5009651;28;20052;-72
2023/09/22 04:01:54;;;;;;;44.97;25.63;;;;;;;;;;5036676;28;20067;-72
2023/09/22 04:04:20;;;;;;;43.80;24.23;;;;;;;;;;5004977;28;20124;-71
2023/09/22 04:06:46;;;;;;;45.17;25.10;;;;;;;;;;5018768;28;20045;-72
2023/09/22 04:09:12;;;;;;;44.65;24.58;;;;;;;;;;5021194;28;20052;-72
2023/09/22 04:11:38;;;;;;;43.40;25.00;;;;;;;;;;5027423;28;21996;-73
2023/09/22 04:14:04;;;;;;;44.53;25.98;;;;;;;;;;5027517;28;20048;-72
2023/09/22 04:16:30;;;;;;;41.63;22.08;;;;;;;;;;5026469;28;20040;-72
2023/09/22 04:18:56;;;;;;;38.45;22.00;;;;;;;;;;5023100;28;20036;-72
2023/09/22 04:21:23;;;;;;;37.38;22.13;;;;;;;;;;5020742;28;20404;-71
2023/09/22 04:23:58;;;;;;;30.58;19.85;;;;;;;;;;5024491;28;20084;-71
2023/09/22 04:26:29;;;;;;;33.25;19.83;;;;;;;;;;5022682;28;20114;-71
2023/09/22 04:28:59;;;;;;;31.50;20.63;;;;;;;;;;5026988;28;20053;-72
2023/09/22 04:31:26;;;;;;;33.85;20.20;;;;;;;;;;5031672;28;20057;-71
2023/09/22 04:33:53;;;;;;;32.85;19.48;;;;;;;;;;5029902;28;20077;-72
2023/09/22 04:36:22;;;;;;;28.67;16.70;;;;;;;;;;5026227;28;20060;-72
2023/09/22 04:38:51;;;;;;;34.60;19.00;;;;;;;;;;5029690;28;20040;-72
2023/09/22 04:41:19;;;;;;;30.00;17.65;;;;;;;;;;5028863;28;20409;-72
2023/09/22 04:43:46;;;;;;;26.58;16.02;;;;;;;;;;5029236;28;20044;-72
2023/09/22 04:46:13;;;;;;;30.80;17.13;;;;;;;;;;5029914;28;20041;-72
2023/09/22 04:48:40;;;;;;;27.38;15.23;;;;;;;;;;5028960;28;20032;-72
2023/09/22 04:51:06;;;;;;;26.70;15.70;;;;;;;;;;5029192;28;20062;-72
2023/09/22 04:53:32;;;;;;;27.40;16.67;;;;;;;;;;5027093;28;20045;-71
2023/09/22 04:56:00;;;;;;;34.45;17.38;;;;;;;;;;5027840;28;20083;-72
2023/09/22 04:58:26;;;;;;;27.70;16.50;;;;;;;;;;5028461;28;20147;-72
2023/09/22 05:00:56;;;;;;;26.13;15.20;;;;;;;;;;5029694;28;20187;-72
2023/09/22 05:03:24;;;;;;;27.00;15.63;;;;;;;;;;5029780;28;20515;-72
2023/09/22 05:05:50;;;;;;;34.10;17.58;;;;;;;;;;5030423;28;20048;-72
2023/09/22 05:08:16;;;;;;;33.22;17.00;;;;;;;;;;5029702;28;20040;-72
2023/09/22 05:10:52;;;;;;;27.65;14.85;;;;;;;;;;5031742;28;20048;-72
2023/09/22 05:13:18;;;;;;;28.55;16.15;;;;;;;;;;5030088;28;20045;-72
2023/09/22 05:15:45;;;;;;;31.30;15.70;;;;;;;;;;5032172;28;20052;-72
2023/09/22 05:18:13;;;;;;;29.52;16.30;;;;;;;;;;5015620;28;20059;-71
2023/09/22 05:20:40;;;;;;;28.10;15.65;;;;;;;;;;5035779;28;20543;-71
2023/09/22 05:23:06;;;;;;;32.75;17.05;;;;;;;;;;5032037;28;20048;-72
2023/09/22 05:25:33;;;;;;;28.98;15.70;;;;;;;;;;5040628;28;20048;-72
2023/09/22 05:28:00;;;;;;;31.15;17.60;;;;;;;;;;5036973;28;20037;-71
2023/09/22 05:30:26;;;;;;;31.90;18.98;;;;;;;;;;5022962;28;20449;-72
2023/09/22 05:32:53;;;;;;;30.70;18.65;;;;;;;;;;5035722;28;20603;-71
2023/09/22 05:35:20;;;;;;;34.63;19.02;;;;;;;;;;5035112;28;20061;-72
2023/09/22 05:37:46;;;;;;;31.20;18.05;;;;;;;;;;5034951;28;20501;-72
2023/09/22 05:40:12;;;;;;;38.67;20.10;;;;;;;;;;5033506;28;20045;-77
2023/09/22 05:42:39;;;;;;;37.63;22.50;;;;;;;;;;5010182;28;20043;-77
2023/09/22 05:45:05;;;;;;;40.50;20.88;;;;;;;;;;5034810;28;20056;-76
2023/09/22 05:47:34;;;;;;;36.38;22.77;;;;;;;;;;5034487;28;20036;-76
2023/09/22 05:50:02;;;;;;;41.08;24.80;;;;;;;;;;5035380;28;20051;-76
2023/09/22 05:52:28;;;;;;;36.20;23.35;;;;;;;;;;5033112;28;20052;-77
2023/09/22 05:54:54;;;;;;;41.33;23.63;;;;;;;;;;5034532;28;20103;-78
2023/09/22 05:57:20;;;;;;;38.72;23.40;;;;;;;;;;5032244;28;20519;-73
2023/09/22 05:59:47;;;;;;;38.83;23.92;;;;;;;;;;5038436;28;20354;-73
2023/09/22 06:02:13;;;;;;;41.65;22.67;;;;;;;;;;5035852;28;20080;-73
2023/09/22 06:04:39;;;;;;;36.72;22.38;;;;;;;;;;5031021;28;20048;-73
2023/09/22 06:07:12;;;;;;;35.85;22.25;;;;;;;;;;5034971;28;20102;-73
2023/09/22 06:09:38;;;;;;;35.75;21.95;;;;;;;;;;5033681;28;20172;-73
2023/09/22 06:12:04;;;;;;;39.65;22.50;;;;;;;;;;5034667;28;20129;-73
2023/09/22 06:14:30;;;;;;;42.25;22.42;;;;;;;;;;5031265;28;20117;-73
2023/09/22 06:16:57;;;;;;;38.45;23.13;;;;;;;;;;5048729;28;20289;-73
2023/09/22 06:19:23;;;;;;;31.02;18.75;;;;;;;;;;5030857;28;21100;-73
2023/09/22 06:21:49;;;;;;;33.70;21.48;;;;;;;;;;5032491;28;20040;-73
2023/09/22 06:24:17;;;;;;;33.78;22.40;;;;;;;;;;5050572;28;20045;-73
2023/09/22 06:26:43;;;;;;;35.85;23.65;;;;;;;;;;5029581;28;20417;-73
2023/09/22 06:29:09;;;;;;;36.10;23.55;;;;;;;;;;5036898;28;20181;-81
2023/09/22 06:31:37;;;;;;;36.47;21.52;;;;;;;;;;5033786;28;20041;-76
2023/09/22 06:34:04;;;;;;;34.97;21.90;;;;;;;;;;5034933;28;20050;-74
2023/09/22 06:36:31;;;;;;;34.75;22.35;;;;;;;;;;5030915;28;20048;-73
2023/09/22 06:38:57;;;;;;;36.97;21.65;;;;;;;;;;5031792;28;20045;-74
2023/09/22 06:41:23;;;;;;;35.13;22.25;;;;;;;;;;5031489;28;20053;-73
2023/09/22 06:43:49;;;;;;;36.00;21.98;;;;;;;;;;5032223;28;20044;-73
2023/09/22 06:46:17;;;;;;;36.13;22.98;;;;;;;;;;5022415;28;20175;-73
2023/09/22 06:48:44;;;;;;;33.58;22.25;;;;;;;;;;5035966;28;20438;-73
2023/09/22 06:51:16;;;;;;;32.97;20.55;;;;;;;;;;5032060;28;21584;-73
2023/09/22 06:53:42;;;;;;;43.15;24.02;;;;;;;;;;5035653;28;20099;-74
2023/09/22 06:56:11;;;;;;;35.10;23.08;;;;;;;;;;5044613;28;20052;-75
2023/09/22 06:58:40;;;;;;;34.60;21.45;;;;;;;;;;5034790;28;20099;-73
2023/09/22 07:01:13;;;;;;;38.08;23.80;;;;;;;;;;5035551;28;20088;-73
2023/09/22 07:03:39;;;;;;;39.15;24.73;;;;;;;;;;5016529;28;20040;-73
2023/09/22 07:06:10;;;;;;;37.50;22.05;;;;;;;;;;5033714;28;20041;-73
2023/09/22 07:08:36;;;;;;;36.83;23.13;;;;;;;;;;5034714;28;20200;-73
2023/09/22 07:11:03;;;;;;;41.45;23.70;;;;;;;;;;5035001;28;20790;-73
2023/09/22 07:13:29;;;;;;;35.35;22.02;;;;;;;;;;5031051;28;20123;-73
2023/09/22 07:15:56;;;;;;;33.80;20.45;;;;;;;;;;5013715;28;20121;-73
2023/09/22 07:18:23;;;;;;;40.10;23.90;;;;;;;;;;5033919;28;20052;-73
2023/09/22 07:20:49;;;;;;;34.63;21.80;;;;;;;;;;5033845;28;20040;-73
2023/09/22 07:23:15;;;;;;;35.33;23.50;;;;;;;;;;5031950;28;20315;-73
2023/09/22 07:25:41;;;;;;;34.97;21.90;;;;;;;;;;5033449;28;21649;-73
2023/09/22 07:28:08;;;;;;;34.30;21.77;;;;;;;;;;5035664;28;20072;-73
2023/09/22 07:30:37;;;;;;;30.60;20.63;;;;;;;;;;5032598;28;20428;-73
2023/09/22 07:33:04;;;;;;;29.92;20.75;;;;;;;;;;5030174;28;20665;-73
2023/09/22 07:35:30;;;;;;;33.30;20.38;;;;;;;;;;5016373;28;20136;-73
2023/09/22 07:37:56;;;;;;;29.90;19.17;;;;;;;;;;5032536;28;20206;-72
2023/09/22 07:40:22;;;;;;;26.83;18.00;;;;;;;;;;5033383;28;20142;-71
2023/09/22 07:42:48;;;;;;;26.77;17.80;;;;;;;;;;5033703;28;20592;-73
2023/09/22 07:45:14;;;;;;;29.38;19.40;;;;;;;;;;5035255;28;20076;-73
2023/09/22 07:47:40;;;;;;;30.08;18.15;;;;;;;;;;5032384;28;20127;-73
2023/09/22 07:50:06;;;;;;;29.23;20.02;;;;;;;;;;5031934;28;20055;-72
2023/09/22 07:52:34;;;;;;;29.50;19.17;;;;;;;;;;5033019;28;20497;-72
2023/09/22 07:55:00;;;;;;;25.15;18.08;;;;;;;;;;5034797;28;20580;-72
2023/09/22 07:57:31;;;;;;;27.92;17.63;;;;;;;;;;5034046;28;20507;-73
2023/09/22 07:59:58;;;;;;;25.98;15.82;;;;;;;;;;5020131;28;20591;-73
2023/09/22 08:02:24;;;;;;;28.25;16.42;;;;;;;;;;5033601;28;20447;-74
2023/09/22 08:04:51;;;;;;;24.10;13.43;;;;;;;;;;5003531;28;20112;-73
2023/09/22 08:07:17;;;;;;;23.05;16.80;;;;;;;;;;5032893;28;20041;-74
2023/09/22 08:09:43;;;;;;;23.65;16.52;;;;;;;;;;5031516;28;20640;-74
2023/09/22 08:12:09;;;;;;;26.90;15.82;;;;;;;;;;5014896;28;20044;-74
2023/09/22 08:14:36;;;;;;;21.52;15.18;;;;;;;;;;5016146;28;20420;-74
2023/09/22 08:17:06;;;;;;;21.50;15.30;;;;;;;;;;5032996;28;20089;-73
2023/09/22 08:19:32;;;;;;;21.88;11.85;;;;;;;;;;5034933;28;20063;-74
2023/09/22 08:21:59;;;;;;;33.83;14.57;;;;;;;;;;5029918;28;20045;-74
2023/09/22 08:24:25;;;;;;;24.85;14.20;;;;;;;;;;5031403;28;21802;-74
2023/09/22 08:26:51;;;;;;;21.67;13.77;;;;;;;;;;5034064;28;20052;-74
2023/09/22 08:29:18;;;;;;;21.60;14.65;;;;;;;;;;5033641;28;20102;-74
2023/09/22 08:31:44;;;;;;;21.85;13.93;;;;;;;;;;5031793;28;20049;-73
2023/09/22 08:34:11;;;;;;;21.75;13.85;;;;;;;;;;5031573;28;21618;-74
2023/09/22 08:36:37;;;;;;;25.08;14.25;;;;;;;;;;5032115;28;22024;-72
2023/09/22 08:39:03;;;;;;;24.17;15.52;;;;;;;;;;5014132;28;20888;-73
2023/09/22 08:41:32;;;;;;;21.38;13.55;;;;;;;;;;5047728;28;20128;-75
2023/09/22 08:43:59;;;;;;;22.08;15.23;;;;;;;;;;5031157;28;20048;-80
2023/09/22 08:46:25;;;;;;;24.13;16.13;;;;;;;;;;5030862;28;20070;-82
2023/09/22 08:48:51;;;;;;;20.83;15.55;;;;;;;;;;5014607;28;20047;-74
2023/09/22 08:51:18;;;;;;;25.70;16.15;;;;;;;;;;5035167;28;20045;-73
2023/09/22 08:53:44;;;;;;;26.55;16.50;;;;;;;;;;5023668;28;20460;-71
2023/09/22 08:56:10;;;;;;;23.02;14.95;;;;;;;;;;5037422;28;20565;-74
2023/09/22 08:58:36;;;;;;;21.02;13.63;;;;;;;;;;5036051;28;20180;-73
2023/09/22 09:01:03;;;;;;;21.63;15.25;;;;;;;;;;5020365;28;20048;-74
2023/09/22 09:03:31;;;;;;;25.38;14.80;;;;;;;;;;5036850;28;20047;-74
2023/09/22 09:06:07;;;;;;;17.30;12.73;;;;;;;;;;5036314;28;20048;-73
2023/09/22 09:08:34;;;;;;;16.27;12.15;;;;;;;;;;5036825;28;20187;-82
2023/09/22 09:11:06;;;;;;;17.58;12.50;;;;;;;;;;5038600;28;20069;-75
2023/09/22 09:13:32;;;;;;;20.90;13.25;;;;;;;;;;5036286;28;20160;-73
2023/09/22 09:16:01;;;;;;;21.95;12.43;;;;;;;;;;5037269;28;20072;-77
2023/09/22 09:18:36;;;;;;;17.50;10.98;;;;;;;;;;5036222;28;20528;-81
2023/09/22 09:21:09;;;;;;;16.75;11.38;;;;;;;;;;5035975;28;22001;-74
2023/09/22 09:23:35;;;;;;;15.13;10.25;;;;;;;;;;5051846;28;20079;-75
2023/09/22 09:26:02;;;;;;;15.35;9.07;;;;;;;;;;5034414;28;20044;-74
2023/09/22 09:28:29;;;;;;;10.52;7.32;;;;;;;;;;5037007;28;20056;-76
2023/09/22 09:30:56;;;;;;;10.65;7.53;;;;;;;;;;5034645;28;20048;-74
2023/09/22 09:33:23;;;;;;;10.23;6.47;;;;;;;;;;5036552;28;20040;-80
2023/09/22 09:35:50;;;;;;;11.13;5.82;;;;;;;;;;5035336;28;20149;-81
2023/09/22 09:38:20;;;;;;;10.77;6.20;;;;;;;;;;5038304;28;20060;-81
2023/09/22 09:40:46;;;;;;;12.15;5.65;;;;;;;;;;5007387;28;20076;-80
2023/09/22 09:43:13;;;;;;;7.90;4.95;;;;;;;;;;5037178;28;20044;-78
2023/09/22 09:45:47;;;;;;;9.88;4.80;;;;;;;;;;5036071;28;20040;-79
2023/09/22 09:48:17;;;;;;;7.18;3.88;;;;;;;;;;5019448;28;21658;-76
2023/09/22 09:50:44;;;;;;;8.25;4.68;;;;;;;;;;5015210;28;20401;-78
2023/09/22 09:53:33;;;;;;;7.80;4.30;;;;;;;;;;5034432;28;20052;-77
2023/09/22 09:56:00;;;;;;;9.32;4.57;;;;;;;;;;5036418;28;20049;-77
2023/09/22 09:58:31;;;;;;;7.00;4.63;;;;;;;;;;5020578;28;20542;-76
2023/09/22 10:00:57;;;;;;;12.48;5.30;;;;;;;;;;5019342;28;20045;-79
2023/09/22 10:03:24;;;;;;;7.97;4.40;;;;;;;;;;5033400;28;20089;-78
2023/09/22 10:05:51;;;;;;;9.57;4.18;;;;;;;;;;5033960;28;20347;-78
2023/09/22 10:08:19;;;;;;;6.70;4.13;;;;;;;;;;5006310;28;20097;-79
2023/09/22 10:10:45;;;;;;;5.97;3.92;;;;;;;;;;5019143;28;20060;-79
2023/09/22 10:13:11;;;;;;;10.02;4.38;;;;;;;;;;5034950;28;20077;-77
2023/09/22 10:15:52;;;;;;;6.82;4.13;;;;;;;;;;5006242;28;20315;-78
2023/09/22 10:18:19;;;;;;;7.72;4.45;;;;;;;;;;5035238;28;20132;-79
2023/09/22 10:20:48;;;;;;;4.70;3.58;;;;;;;;;;5021432;28;20397;-77
2023/09/22 10:23:16;;;;;;;6.22;4.28;;;;;;;;;;5034977;28;20064;-78
2023/09/22 10:25:42;;;;;;;5.93;3.92;;;;;;;;;;5005240;28;20079;-80
2023/09/22 10:28:10;;;;;;;7.15;3.40;;;;;;;;;;5034314;28;20045;-79
2023/09/22 10:30:46;;;;;;;5.50;3.38;;;;;;;;;;5033499;28;20052;-77
2023/09/22 10:33:16;;;;;;;3.97;3.10;;;;;;;;;;5005909;28;20099;-75
2023/09/22 10:35:42;;;;;;;4.97;2.95;;;;;;;;;;5029992;28;20179;-76
2023/09/22 10:38:10;;;;;;;4.10;3.05;;;;;;;;;;5014714;28;20037;-76
2023/09/22 10:40:36;;;;;;;4.10;3.03;;;;;;;;;;5016122;28;20636;-75
2023/09/22 10:43:03;;;;;;;5.90;3.25;;;;;;;;;;5003254;28;20446;-73
2023/09/22 10:45:29;;;;;;;4.65;2.30;;;;;;;;;;5016202;28;20075;-79
2023/09/22 10:47:59;;;;;;;2.70;2.28;;;;;;;;;;5017523;28;20055;-76
2023/09/22 10:50:33;;;;;;;3.60;1.90;;;;;;;;;;5030672;28;20067;-81
2023/09/22 10:53:01;;;;;;;;;;;;;;;;;;5033608;28;20040;-75
2023/09/22 10:55:35;;;;;;;3.22;1.45;;;;;;;;;;5012461;28;19963;-77
2023/09/22 10:58:04;;;;;;;2.45;1.70;;;;;;;;;;5014470;28;20049;-74
2023/09/22 11:00:32;;;;;;;1.98;1.80;;;;;;;;;;5033927;28;20051;-78
2023/09/22 11:03:24;;;;;;;2.75;1.73;;;;;;;;;;5035833;28;20404;-78
2023/09/22 11:06:03;;;;;;;3.63;1.52;;;;;;;;;;5001275;28;20045;-82
2023/09/22 11:08:29;;;;;;;2.03;1.40;;;;;;;;;;5014229;28;20113;-78
2023/09/22 11:10:56;;;;;;;2.10;1.42;;;;;;;;;;5026089;28;20059;-78
2023/09/22 11:13:23;;;;;;;2.30;1.60;;;;;;;;;;5032139;28;20045;-78
2023/09/22 11:15:56;;;;;;;3.10;1.80;;;;;;;;;;5025669;28;20180;-78
2023/09/22 11:18:29;;;;;;;2.65;1.45;;;;;;;;;;5029231;28;20072;-77
2023/09/22 11:20:56;;;;;;;2.83;1.60;;;;;;;;;;5029216;28;20128;-78
2023/09/22 11:23:23;;;;;;;3.33;1.80;;;;;;;;;;5027935;28;20053;-78
2023/09/22 11:25:58;;;;;;;3.83;1.63;;;;;;;;;;5028665;28;20524;-75
2023/09/22 11:28:24;;;;;;;3.80;1.58;;;;;;;;;;5028506;28;20552;-78
2023/09/22 11:30:52;;;;;;;1.52;1.27;;;;;;;;;;5011178;28;20260;-78
2023/09/22 11:33:18;;;;;;;2.78;1.20;;;;;;;;;;5027590;28;20601;-78
2023/09/22 11:35:44;;;;;;;2.60;1.10;;;;;;;;;;5026595;28;20065;-78
2023/09/22 11:38:24;;;;;;;1.95;1.23;;;;;;;;;;5030072;28;20059;-78
2023/09/22 11:41:02;;;;;;;2.33;1.27;;;;;;;;;;5032417;28;20045;-77
2023/09/22 11:43:28;;;;;;;2.65;1.40;;;;;;;;;;5001228;28;20520;-77
2023/09/22 11:46:15;;;;;;;3.20;1.30;;;;;;;;;;5014489;28;20452;-74
2023/09/22 11:49:00;;;;;;;2.35;1.38;;;;;;;;;;5025532;28;20540;-77
2023/09/22 11:51:50;;;;;;;1.35;1.25;;;;;;;;;;5010867;28;20059;-82
2023/09/22 11:54:20;;;;;;;3.42;1.40;;;;;;;;;;5028235;28;20429;-77
2023/09/22 11:56:47;;;;;;;2.92;1.40;;;;;;;;;;5029222;28;20048;-81
2023/09/22 11:59:15;;;;;;;3.42;1.38;;;;;;;;;;5026775;28;21702;-81
2023/09/22 12:01:42;;;;;;;2.65;1.20;;;;;;;;;;5027491;28;20178;-80
2023/09/22 12:04:11;;;;;;;3.60;1.55;;;;;;;;;;5016285;28;20057;-80
2023/09/22 12:06:40;;;;;;;4.47;1.63;;;;;;;;;;5015867;28;20123;-80
2023/09/22 12:09:06;;;;;;;1.65;1.55;;;;;;;;;;5026664;28;20097;-80
2023/09/22 12:11:32;;;;;;;1.58;1.20;;;;;;;;;;5027104;28;20095;-78
2023/09/22 12:14:00;;;;;;;1.95;1.27;;;;;;;;;;5033052;28;20090;-78
2023/09/22 12:16:26;;;;;;;3.88;1.60;;;;;;;;;;5013734;28;20045;-81
2023/09/22 12:18:52;;;;;;;1.48;1.30;;;;;;;;;;5032989;28;21658;-80
2023/09/22 12:21:19;;;;;;;2.67;1.52;;;;;;;;;;5034584;28;20780;-79
2023/09/22 12:23:48;;;;;;;4.78;1.30;;;;;;;;;;4998070;28;20039;-81
2023/09/22 12:26:17;;;;;;;4.70;1.67;;;;;;;;;;5031536;28;20045;-81
2023/09/22 12:28:43;;;;;;;5.35;1.30;;;;;;;;;;5032674;28;20041;-81
2023/09/22 12:31:09;;;;;;;2.97;1.73;;;;;;;;;;5004810;28;20072;-79
2023/09/22 12:33:40;;;;;;;3.10;1.60;;;;;;;;;;5030453;28;20642;-84
2023/09/22 12:36:29;;;;;;;2.33;1.60;;;;;;;;;;5013910;28;20098;-81
2023/09/22 12:39:03;;;;;;;1.90;1.67;;;;;;;;;;5031648;28;20203;-82
2023/09/22 12:41:29;;;;;;;;;;;;;;;;;;5034006;28;20443;-77
2023/09/22 12:44:00;;;;;;;2.13;1.75;;;;;;;;;;5031053;28;19924;-81
2023/09/22 12:46:29;;;;;;;3.50;1.98;;;;;;;;;;5032829;28;20044;-80
2023/09/22 12:48:55;;;;;;;4.88;2.05;;;;;;;;;;5034109;28;20921;-85
2023/09/22 12:51:35;;;;;;;7.38;1.90;;;;;;;;;;5005953;28;20128;-85
2023/09/22 12:54:17;;;;;;;3.28;2.20;;;;;;;;;;5022106;28;20408;-82
2023/09/22 12:56:44;;;;;;;2.40;2.20;;;;;;;;;;5011637;28;20036;-82
2023/09/22 12:59:40;;;;;;;3.78;2.30;;;;;;;;;;5021286;28;20079;-81
2023/09/22 13:02:15;;;;;;;4.78;2.47;;;;;;;;;;5020054;28;20053;-81
2023/09/22 13:05:07;;;;;;;2.28;2.08;;;;;;;;;;5030851;28;20523;-81
2023/09/22 13:11:31;;;;;;;6.18;2.30;;;;;;;;;;5031738;28;20138;-81
2023/09/22 13:14:03;;;;;;;2.97;2.35;;;;;;;;;;5019292;28;20938;-79
2023/09/22 13:16:34;;;;;;;2.83;2.50;;;;;;;;;;5032027;28;20048;-85
2023/09/22 13:19:00;;;;;;;2.78;2.58;;;;;;;;;;5017144;28;20135;-85
2023/09/22 13:21:26;;;;;;;4.28;2.40;;;;;;;;;;5001991;28;20128;-78
2023/09/22 13:27:00;;;;;;;3.42;2.40;;;;;;;;;;5025415;28;20076;-83
2023/09/22 13:29:26;;;;;;;2.40;2.20;;;;;;;;;;5016986;28;20063;-84
2023/09/22 13:31:55;;;;;;;4.82;1.98;;;;;;;;;;5013565;28;20052;-81
2023/09/22 13:34:23;;;;;;;2.40;2.20;;;;;;;;;;4998052;28;20045;-81
2023/09/22 13:37:00;;;;;;;4.85;2.08;;;;;;;;;;5033228;28;20433;-81
2023/09/22 13:39:26;;;;;;;4.20;1.88;;;;;;;;;;5006715;28;20044;-81
2023/09/22 13:42:14;;;;;;;1.70;1.60;;;;;;;;;;5032423;28;20099;-85
2023/09/22 13:45:18;;;;;;;4.22;2.00;;;;;;;;;;5018529;28;20493;-82
2023/09/22 13:47:56;;;;;;;2.25;1.75;;;;;;;;;;5017344;28;20045;-85
2023/09/22 13:50:22;;;;;;;3.10;1.80;;;;;;;;;;5019631;28;20477;-82
2023/09/22 13:52:51;;;;;;;3.38;1.80;;;;;;;;;;5033265;28;20091;-85
2023/09/22 13:58:39;;;;;;;3.08;1.70;;;;;;;;;;4964307;28;20415;-81
2023/09/22 14:01:14;;;;;;;1.80;1.70;;;;;;;;;;4979878;28;20064;-81
2023/09/22 14:03:41;;;;;;;2.95;2.08;;;;;;;;;;4998060;28;20060;-81
2023/09/22 14:06:14;;;;;;;3.47;1.80;;;;;;;;;;5017057;28;20086;-76
2023/09/22 14:08:41;;;;;;;2.88;1.90;;;;;;;;;;5028997;28;20421;-75
2023/09/22 14:11:10;;;;;;;3.05;2.25;;;;;;;;;;5015232;28;20067;-80
2023/09/22 14:13:36;;;;;;;3.10;1.80;;;;;;;;;;5021818;28;20100;-71
2023/09/22 14:16:03;;;;;;;3.55;1.80;;;;;;;;;;5013988;28;20045;-72
2023/09/22 14:18:29;;;;;;;2.47;1.65;;;;;;;;;;5009226;28;20080;-72
2023/09/22 14:20:55;;;;;;;2.53;1.83;;;;;;;;;;5032719;28;20045;-72
2023/09/22 14:23:21;;;;;;;1.70;1.60;;;;;;;;;;5013849;28;20151;-72
2023/09/22 14:25:48;;;;;;;2.00;1.50;;;;;;;;;;4994755;28;20445;-72
2023/09/22 14:28:15;;;;;;;2.33;1.73;;;;;;;;;;5009763;28;20693;-72
2023/09/22 14:30:41;;;;;;;2.08;1.80;;;;;;;;;;5028822;28;20045;-72
2023/09/22 14:33:07;;;;;;;2.35;1.60;;;;;;;;;;5029671;28;20179;-72
2023/09/22 14:35:33;;;;;;;1.80;1.60;;;;;;;;;;5027671;28;20033;-72
2023/09/22 14:37:59;;;;;;;2.85;1.80;;;;;;;;;;5015705;28;20049;-72
2023/09/22 14:40:25;;;;;;;3.25;1.95;;;;;;;;;;5018547;28;20037;-72